createdAt,value
2018-03-04T00:00:10.368Z,19.95
2018-03-04T00:01:10.355Z,19.99
2018-03-04T00:02:10.342Z,19.98
2018-03-04T00:03:10.342Z,19.94
2018-03-04T00:04:10.320Z,19.92
2018-03-04T00:05:10.308Z,20.01
2018-03-04T00:06:10.295Z,19.99
2018-03-04T00:07:10.286Z,19.98
2018-03-04T00:08:10.304Z,19.95
2018-03-04T00:09:10.269Z,19.98
2018-03-04T00:10:10.251Z,19.96
2018-03-04T00:11:10.239Z,19.87
2018-03-04T00:12:10.226Z,19.96
2018-03-04T00:13:10.219Z,19.94
2018-03-04T00:14:10.219Z,19.96
2018-03-04T00:15:10.191Z,19.94
2018-03-04T00:16:10.180Z,19.88
2018-03-04T00:17:10.168Z,19.91
2018-03-04T00:18:10.156Z,19.92
2018-03-04T00:19:10.140Z,19.95
2018-03-04T00:20:10.397Z,19.86
2018-03-04T00:21:10.121Z,19.88
2018-03-04T00:22:10.110Z,19.88
2018-03-04T00:23:10.098Z,19.94
2018-03-04T00:24:10.087Z,19.87
2018-03-04T00:25:10.077Z,19.91
2018-03-04T00:26:10.073Z,19.91
2018-03-04T00:27:10.051Z,19.83
2018-03-04T00:28:10.039Z,19.80
2018-03-04T00:29:10.029Z,19.83
2018-03-04T00:30:10.017Z,19.78
2018-03-04T00:31:10.267Z,19.88
2018-03-04T00:32:09.993Z,19.83
2018-03-04T00:33:09.993Z,19.78
2018-03-04T00:34:09.969Z,19.84
2018-03-04T00:35:09.954Z,19.77
2018-03-04T00:36:09.960Z,19.80
2018-03-04T00:37:10.182Z,19.78
2018-03-04T00:38:09.923Z,19.80
2018-03-04T00:39:09.909Z,19.78
2018-03-04T00:40:09.900Z,19.78
2018-03-04T00:41:09.885Z,19.80
2018-03-04T00:42:09.874Z,19.78
2018-03-04T00:43:09.872Z,19.74
2018-03-04T00:44:09.849Z,19.80
2018-03-04T00:45:09.842Z,19.80
2018-03-04T00:46:09.827Z,19.77
2018-03-04T00:47:09.819Z,19.81
2018-03-04T00:48:09.818Z,19.78
2018-03-04T00:49:09.790Z,19.77
2018-03-04T00:50:09.779Z,19.83
2018-03-04T00:51:09.768Z,19.74
2018-03-04T00:52:09.754Z,19.77
2018-03-04T00:53:09.745Z,19.68
2018-03-04T00:54:09.748Z,19.68
2018-03-04T00:55:09.721Z,19.74
2018-03-04T00:56:09.708Z,19.73
2018-03-04T00:57:09.700Z,19.66
2018-03-04T00:58:09.684Z,19.68
2018-03-04T00:59:09.677Z,19.74
2018-03-04T01:00:09.688Z,19.68
2018-03-04T01:01:09.649Z,19.71
2018-03-04T01:02:09.637Z,19.74
2018-03-04T01:03:09.626Z,19.71
2018-03-04T01:04:09.617Z,19.66
2018-03-04T01:05:09.617Z,19.71
2018-03-04T01:06:09.588Z,19.69
2018-03-04T01:07:09.577Z,19.73
2018-03-04T01:08:09.565Z,19.65
2018-03-04T01:09:09.555Z,19.58
2018-03-04T01:10:09.546Z,19.73
2018-03-04T01:11:09.546Z,19.65
2018-03-04T01:12:09.518Z,19.74
2018-03-04T01:13:09.505Z,19.63
2018-03-04T01:14:09.494Z,19.71
2018-03-04T01:15:09.490Z,19.65
2018-03-04T01:16:09.469Z,19.63
2018-03-04T01:17:09.473Z,19.66
2018-03-04T01:18:09.447Z,19.69
2018-03-04T01:19:09.433Z,19.68
2018-03-04T01:20:09.424Z,19.66
2018-03-04T01:21:09.409Z,19.66
2018-03-04T01:22:09.398Z,19.62
2018-03-04T01:23:09.397Z,19.65
2018-03-04T01:24:09.374Z,19.65
2018-03-04T01:25:09.364Z,19.65
2018-03-04T01:26:09.351Z,19.73
2018-03-04T01:27:09.339Z,19.63
2018-03-04T01:28:09.358Z,19.73
2018-03-04T01:29:09.315Z,19.66
2018-03-04T01:30:09.303Z,19.65
2018-03-04T01:31:09.291Z,19.59
2018-03-04T01:32:09.278Z,19.66
2018-03-04T01:33:09.271Z,19.59
2018-03-04T01:34:09.273Z,19.61
2018-03-04T01:35:09.254Z,19.56
2018-03-04T01:36:09.230Z,19.56
2018-03-04T01:37:09.217Z,19.59
2018-03-04T01:38:09.211Z,19.59
2018-03-04T01:39:09.201Z,19.59
2018-03-04T01:40:09.193Z,19.58
2018-03-04T01:41:09.171Z,19.59
2018-03-04T01:42:09.160Z,19.58
2018-03-04T01:43:09.149Z,19.59
2018-03-04T01:44:09.135Z,19.56
2018-03-04T01:45:09.137Z,19.58
2018-03-04T01:46:09.115Z,19.56
2018-03-04T01:47:09.142Z,19.58
2018-03-04T01:48:09.087Z,19.55
2018-03-04T01:49:09.076Z,19.62
2018-03-04T01:50:09.075Z,19.61
2018-03-04T01:51:09.052Z,19.44
2018-03-04T01:52:09.039Z,19.56
2018-03-04T01:53:09.030Z,19.47
2018-03-04T01:54:09.014Z,19.54
2018-03-04T01:55:09.020Z,19.48
2018-03-04T01:56:08.992Z,19.54
2018-03-04T01:57:08.979Z,19.56
2018-03-04T01:58:08.966Z,19.55
2018-03-04T01:59:08.956Z,19.47
2018-03-04T02:00:08.945Z,19.50
2018-03-04T02:01:08.941Z,19.51
2018-03-04T02:02:08.921Z,19.58
2018-03-04T02:03:08.908Z,19.58
2018-03-04T02:04:08.895Z,19.55
2018-03-04T02:05:08.886Z,19.55
2018-03-04T02:06:08.887Z,19.55
2018-03-04T02:07:08.860Z,19.51
2018-03-04T02:08:08.845Z,19.54
2018-03-04T02:09:08.835Z,19.48
2018-03-04T02:10:08.823Z,19.58
2018-03-04T02:11:08.812Z,19.56
2018-03-04T02:12:08.809Z,19.50
2018-03-04T02:13:08.786Z,19.58
2018-03-04T02:14:08.775Z,19.48
2018-03-04T02:15:08.762Z,19.44
2018-03-04T02:16:08.750Z,19.46
2018-03-04T02:17:08.749Z,19.55
2018-03-04T02:18:08.726Z,19.58
2018-03-04T02:19:08.714Z,19.55
2018-03-04T02:20:08.702Z,19.44
2018-03-04T02:21:08.690Z,19.47
2018-03-04T02:22:08.690Z,19.46
2018-03-04T02:23:08.668Z,19.56
2018-03-04T02:24:08.654Z,19.47
2018-03-04T02:25:08.641Z,19.48
2018-03-04T02:26:08.630Z,19.51
2018-03-04T02:27:08.618Z,19.51
2018-03-04T02:28:08.616Z,19.48
2018-03-04T02:29:08.595Z,19.48
2018-03-04T02:30:08.591Z,19.48
2018-03-04T02:31:08.569Z,19.46
2018-03-04T02:32:08.558Z,19.46
2018-03-04T02:33:08.561Z,19.46
2018-03-04T02:34:08.534Z,19.46
2018-03-04T02:35:08.521Z,19.50
2018-03-04T02:36:08.509Z,19.50
2018-03-04T02:37:08.496Z,19.48
2018-03-04T02:38:08.484Z,19.50
2018-03-04T02:39:08.486Z,19.44
2018-03-04T02:40:08.461Z,19.47
2018-03-04T02:41:08.447Z,19.47
2018-03-04T02:42:08.436Z,19.44
2018-03-04T02:43:08.427Z,19.54
2018-03-04T02:44:08.424Z,19.46
2018-03-04T02:45:08.401Z,19.55
2018-03-04T02:46:08.390Z,19.44
2018-03-04T02:47:08.381Z,19.46
2018-03-04T02:48:08.363Z,19.54
2018-03-04T02:49:08.367Z,19.50
2018-03-04T02:50:08.339Z,19.47
2018-03-04T02:51:08.327Z,19.44
2018-03-04T02:52:08.316Z,19.44
2018-03-04T02:53:08.304Z,19.46
2018-03-04T02:54:08.290Z,19.44
2018-03-04T02:55:08.290Z,19.44
2018-03-04T02:56:08.265Z,19.46
2018-03-04T02:57:08.254Z,19.44
2018-03-04T02:58:08.243Z,19.43
2018-03-04T02:59:08.230Z,19.43
2018-03-04T03:00:08.467Z,19.31
2018-03-04T03:01:08.206Z,19.37
2018-03-04T03:02:08.194Z,19.41
2018-03-04T03:03:08.183Z,19.46
2018-03-04T03:04:08.172Z,19.32
2018-03-04T03:05:08.157Z,19.41
2018-03-04T03:06:08.155Z,19.32
2018-03-04T03:07:08.137Z,19.29
2018-03-04T03:08:08.122Z,19.40
2018-03-04T03:09:08.109Z,19.40
2018-03-04T03:10:08.096Z,19.33
2018-03-04T03:11:08.095Z,19.32
2018-03-04T03:12:08.072Z,19.32
2018-03-04T03:13:08.059Z,19.29
2018-03-04T03:14:08.048Z,19.29
2018-03-04T03:15:08.038Z,19.32
2018-03-04T03:16:08.033Z,19.36
2018-03-04T03:17:08.024Z,19.37
2018-03-04T03:18:07.999Z,19.40
2018-03-04T03:19:07.987Z,19.33
2018-03-04T03:20:07.975Z,19.37
2018-03-04T03:21:07.963Z,19.32
2018-03-04T03:22:07.961Z,19.39
2018-03-04T03:23:07.937Z,19.36
2018-03-04T03:24:07.925Z,19.37
2018-03-04T03:25:07.914Z,19.33
2018-03-04T03:26:07.901Z,19.32
2018-03-04T03:27:07.904Z,19.33
2018-03-04T03:28:07.877Z,19.32
2018-03-04T03:29:07.866Z,19.29
2018-03-04T03:30:07.854Z,19.32
2018-03-04T03:31:07.843Z,19.32
2018-03-04T03:32:07.828Z,19.39
2018-03-04T03:33:07.826Z,19.37
2018-03-04T03:34:07.804Z,19.39
2018-03-04T03:35:07.794Z,19.40
2018-03-04T03:36:07.780Z,19.36
2018-03-04T03:37:07.767Z,19.37
2018-03-04T03:38:07.779Z,19.31
2018-03-04T03:39:07.744Z,19.32
2018-03-04T03:40:07.731Z,19.40
2018-03-04T03:41:07.718Z,19.32
2018-03-04T03:42:07.707Z,19.37
2018-03-04T03:43:07.696Z,19.33
2018-03-04T03:44:07.694Z,19.37
2018-03-04T03:45:07.671Z,19.36
2018-03-04T03:46:07.659Z,19.33
2018-03-04T03:47:07.646Z,19.36
2018-03-04T03:48:07.633Z,19.39
2018-03-04T03:49:07.631Z,19.33
2018-03-04T03:50:07.610Z,19.37
2018-03-04T03:51:07.597Z,19.37
2018-03-04T03:52:07.584Z,19.37
2018-03-04T03:53:07.573Z,19.37
2018-03-04T03:54:07.576Z,19.36
2018-03-04T03:55:07.550Z,19.33
2018-03-04T03:56:07.540Z,19.39
2018-03-04T03:57:07.524Z,19.32
2018-03-04T03:58:07.512Z,19.33
2018-03-04T03:59:07.501Z,19.37
2018-03-04T04:00:07.498Z,19.28
2018-03-04T04:01:07.477Z,19.23
2018-03-04T04:02:07.464Z,19.32
2018-03-04T04:03:07.451Z,19.36
2018-03-04T04:04:07.438Z,19.33
2018-03-04T04:05:07.692Z,19.33
2018-03-04T04:06:07.414Z,19.33
2018-03-04T04:07:07.402Z,19.32
2018-03-04T04:08:07.390Z,19.33
2018-03-04T04:09:07.377Z,19.32
2018-03-04T04:10:07.366Z,19.28
2018-03-04T04:11:07.363Z,19.22
2018-03-04T04:12:07.341Z,19.36
2018-03-04T04:13:07.328Z,19.22
2018-03-04T04:14:07.316Z,19.25
2018-03-04T04:15:07.305Z,19.25
2018-03-04T04:16:07.301Z,19.26
2018-03-04T04:17:07.280Z,19.26
2018-03-04T04:18:07.267Z,19.26
2018-03-04T04:19:07.256Z,19.26
2018-03-04T04:20:07.242Z,19.25
2018-03-04T04:21:07.246Z,19.26
2018-03-04T04:22:07.219Z,19.33
2018-03-04T04:23:07.207Z,19.29
2018-03-04T04:24:07.194Z,19.22
2018-03-04T04:25:07.182Z,19.21
2018-03-04T04:26:07.170Z,19.21
2018-03-04T04:27:07.167Z,19.31
2018-03-04T04:28:07.144Z,19.26
2018-03-04T04:29:07.133Z,19.28
2018-03-04T04:30:07.124Z,19.25
2018-03-04T04:31:07.109Z,19.28
2018-03-04T04:32:07.111Z,19.31
2018-03-04T04:33:07.084Z,19.28
2018-03-04T04:34:07.072Z,19.31
2018-03-04T04:35:07.060Z,19.26
2018-03-04T04:36:07.046Z,19.28
2018-03-04T04:37:07.035Z,19.23
2018-03-04T04:38:07.035Z,19.25
2018-03-04T04:39:07.011Z,19.22
2018-03-04T04:40:06.997Z,19.28
2018-03-04T04:41:06.985Z,19.26
2018-03-04T04:42:06.974Z,19.25
2018-03-04T04:43:06.977Z,19.29
2018-03-04T04:44:06.948Z,19.28
2018-03-04T04:45:06.944Z,19.26
2018-03-04T04:46:06.924Z,19.31
2018-03-04T04:47:06.912Z,19.23
2018-03-04T04:48:06.902Z,19.22
2018-03-04T04:49:06.907Z,19.31
2018-03-04T04:50:06.874Z,19.25
2018-03-04T04:51:06.862Z,19.25
2018-03-04T04:52:06.851Z,19.25
2018-03-04T04:53:06.839Z,19.23
2018-03-04T04:54:06.826Z,19.22
2018-03-04T04:55:06.826Z,19.28
2018-03-04T04:56:06.802Z,19.32
2018-03-04T04:57:06.790Z,19.28
2018-03-04T04:58:06.777Z,19.16
2018-03-04T04:59:06.765Z,19.18
2018-03-04T05:00:06.765Z,19.31
2018-03-04T05:01:06.741Z,19.19
2018-03-04T05:02:06.729Z,19.29
2018-03-04T05:03:06.716Z,19.31
2018-03-04T05:04:06.703Z,19.19
2018-03-04T05:05:06.702Z,19.18
2018-03-04T05:06:06.678Z,19.13
2018-03-04T05:07:06.666Z,19.16
2018-03-04T05:08:06.655Z,19.19
2018-03-04T05:09:06.645Z,19.19
2018-03-04T05:10:06.674Z,19.23
2018-03-04T05:11:06.633Z,19.23
2018-03-04T05:12:06.605Z,19.18
2018-03-04T05:13:06.592Z,19.18
2018-03-04T05:14:06.581Z,19.14
2018-03-04T05:15:06.568Z,19.18
2018-03-04T05:16:06.555Z,19.19
2018-03-04T05:17:06.556Z,19.23
2018-03-04T05:18:06.531Z,19.18
2018-03-04T05:19:06.519Z,19.14
2018-03-04T05:20:06.506Z,19.11
2018-03-04T05:21:06.495Z,19.21
2018-03-04T05:22:06.496Z,19.18
2018-03-04T05:23:06.471Z,19.13
2018-03-04T05:24:06.457Z,19.08
2018-03-04T05:25:06.451Z,19.19
2018-03-04T05:26:06.433Z,19.16
2018-03-04T05:27:06.421Z,19.21
2018-03-04T05:28:06.416Z,19.16
2018-03-04T05:29:06.395Z,19.19
2018-03-04T05:30:06.384Z,19.22
2018-03-04T05:31:06.376Z,19.44
2018-03-04T05:32:06.359Z,19.44
2018-03-04T05:33:06.362Z,19.37
2018-03-04T05:34:06.334Z,19.46
2018-03-04T05:35:06.323Z,19.44
2018-03-04T05:36:06.309Z,19.46
2018-03-04T05:37:06.297Z,19.46
2018-03-04T05:38:06.285Z,19.55
2018-03-04T05:39:06.286Z,19.66
2018-03-04T05:40:06.260Z,19.66
2018-03-04T05:41:06.253Z,19.65
2018-03-04T05:42:06.236Z,19.68
2018-03-04T05:43:06.224Z,19.78
2018-03-04T05:44:06.226Z,19.84
2018-03-04T05:45:06.201Z,19.84
2018-03-04T05:46:06.187Z,19.84
2018-03-04T05:47:06.175Z,19.84
2018-03-04T05:48:06.162Z,19.83
2018-03-04T05:49:06.150Z,19.94
2018-03-04T05:50:06.148Z,20.03
2018-03-04T05:51:06.126Z,19.95
2018-03-04T05:52:06.115Z,19.99
2018-03-04T05:53:06.101Z,20.01
2018-03-04T05:54:06.091Z,20.02
2018-03-04T05:55:06.092Z,20.02
2018-03-04T05:56:06.065Z,20.06
2018-03-04T05:57:06.053Z,20.11
2018-03-04T05:58:06.041Z,20.13
2018-03-04T05:59:06.030Z,20.14
2018-03-04T06:00:06.031Z,20.16
2018-03-04T06:01:06.053Z,20.17
2018-03-04T06:02:05.998Z,20.17
2018-03-04T06:03:05.981Z,20.13
2018-03-04T06:04:05.969Z,20.14
2018-03-04T06:05:05.956Z,20.11
2018-03-04T06:06:05.955Z,20.17
2018-03-04T06:07:05.933Z,20.17
2018-03-04T06:08:05.921Z,20.14
2018-03-04T06:09:05.909Z,20.18
2018-03-04T06:10:05.897Z,20.11
2018-03-04T06:11:05.901Z,20.16
2018-03-04T06:12:05.872Z,20.13
2018-03-04T06:13:05.861Z,20.17
2018-03-04T06:14:05.849Z,20.23
2018-03-04T06:15:05.837Z,20.11
2018-03-04T06:16:05.825Z,20.21
2018-03-04T06:17:05.823Z,20.26
2018-03-04T06:18:05.802Z,20.24
2018-03-04T06:19:05.790Z,20.31
2018-03-04T06:20:05.778Z,20.31
2018-03-04T06:21:05.765Z,20.31
2018-03-04T06:22:05.761Z,20.33
2018-03-04T06:23:05.742Z,20.35
2018-03-04T06:24:05.732Z,20.32
2018-03-04T06:25:05.719Z,20.35
2018-03-04T06:26:05.707Z,20.36
2018-03-04T06:27:05.711Z,20.36
2018-03-04T06:28:05.683Z,20.36
2018-03-04T06:29:05.670Z,20.38
2018-03-04T06:30:05.659Z,20.28
2018-03-04T06:31:05.648Z,20.36
2018-03-04T06:32:05.636Z,20.29
2018-03-04T06:33:05.632Z,20.38
2018-03-04T06:34:05.613Z,20.36
2018-03-04T06:35:05.600Z,20.42
2018-03-04T06:36:05.589Z,20.42
2018-03-04T06:37:05.580Z,20.35
2018-03-04T06:38:05.580Z,20.41
2018-03-04T06:39:05.558Z,20.39
2018-03-04T06:40:05.542Z,20.42
2018-03-04T06:41:05.531Z,20.38
2018-03-04T06:42:05.519Z,20.47
2018-03-04T06:43:05.508Z,20.43
2018-03-04T06:44:05.505Z,20.39
2018-03-04T06:45:05.484Z,20.35
2018-03-04T06:46:05.472Z,20.47
2018-03-04T06:47:05.461Z,20.50
2018-03-04T06:48:05.449Z,20.43
2018-03-04T06:49:05.449Z,20.50
2018-03-04T06:50:05.427Z,20.57
2018-03-04T06:51:05.415Z,20.55
2018-03-04T06:52:05.403Z,20.35
2018-03-04T06:53:05.392Z,20.42
2018-03-04T06:54:05.412Z,20.43
2018-03-04T06:55:05.369Z,20.48
2018-03-04T06:56:05.357Z,20.57
2018-03-04T06:57:05.346Z,20.64
2018-03-04T06:58:05.340Z,20.72
2018-03-04T06:59:05.326Z,20.73
2018-03-04T07:00:05.322Z,20.74
2018-03-04T07:01:05.301Z,20.76
2018-03-04T07:02:05.289Z,20.76
2018-03-04T07:03:05.278Z,20.74
2018-03-04T07:04:05.268Z,20.73
2018-03-04T07:05:05.269Z,20.77
2018-03-04T07:06:05.248Z,20.72
2018-03-04T07:07:05.233Z,20.88
2018-03-04T07:08:05.220Z,20.88
2018-03-04T07:09:05.213Z,20.84
2018-03-04T07:10:05.199Z,20.80
2018-03-04T07:11:05.199Z,20.85
2018-03-04T07:12:05.175Z,20.87
2018-03-04T07:13:05.162Z,20.73
2018-03-04T07:14:05.154Z,20.72
2018-03-04T07:15:05.142Z,20.55
2018-03-04T07:16:05.147Z,20.50
2018-03-04T07:17:05.121Z,20.33
2018-03-04T07:18:05.110Z,20.05
2018-03-04T07:19:05.098Z,19.86
2018-03-04T07:20:05.086Z,19.91
2018-03-04T07:21:05.076Z,19.71
2018-03-04T07:22:05.074Z,19.73
2018-03-04T07:23:05.053Z,19.56
2018-03-04T07:24:05.042Z,19.47
2018-03-04T07:25:05.031Z,19.44
2018-03-04T07:26:05.020Z,19.43
2018-03-04T07:27:05.018Z,19.44
2018-03-04T07:28:04.997Z,19.41
2018-03-04T07:29:04.986Z,19.61
2018-03-04T07:30:04.976Z,19.80
2018-03-04T07:31:04.966Z,19.81
2018-03-04T07:32:04.967Z,19.95
2018-03-04T07:33:04.941Z,20.06
2018-03-04T07:34:04.931Z,20.06
2018-03-04T07:35:04.989Z,20.13
2018-03-04T07:36:04.907Z,20.31
2018-03-04T07:37:04.896Z,20.32
2018-03-04T07:38:04.896Z,20.29
2018-03-04T07:39:04.875Z,20.33
2018-03-04T07:40:04.863Z,20.43
2018-03-04T07:41:04.852Z,20.38
2018-03-04T07:42:04.843Z,20.43
2018-03-04T07:43:04.861Z,20.41
2018-03-04T07:44:04.817Z,20.39
2018-03-04T07:45:04.808Z,20.43
2018-03-04T07:46:04.795Z,20.41
2018-03-04T07:47:04.785Z,20.26
2018-03-04T07:48:04.773Z,20.16
2018-03-04T07:49:04.776Z,20.26
2018-03-04T07:50:04.751Z,20.14
2018-03-04T07:51:04.742Z,20.02
2018-03-04T07:52:04.728Z,20.31
2018-03-04T07:53:04.717Z,20.36
2018-03-04T07:54:04.718Z,20.41
2018-03-04T07:55:04.696Z,20.38
2018-03-04T07:56:04.684Z,20.43
2018-03-04T07:57:04.672Z,20.55
2018-03-04T07:58:04.661Z,20.54
2018-03-04T07:59:04.902Z,20.73
2018-03-04T08:00:04.640Z,20.74
2018-03-04T08:01:04.627Z,20.77
2018-03-04T08:02:04.617Z,20.85
2018-03-04T08:03:04.605Z,20.95
2018-03-04T08:04:04.594Z,20.76
2018-03-04T08:05:04.592Z,20.69
2018-03-04T08:06:04.573Z,20.59
2018-03-04T08:07:04.561Z,20.70
2018-03-04T08:08:04.548Z,20.69
2018-03-04T08:09:04.539Z,20.72
2018-03-04T08:10:04.547Z,20.72
2018-03-04T08:11:04.517Z,20.59
2018-03-04T08:12:04.504Z,20.64
2018-03-04T08:13:04.492Z,20.55
2018-03-04T08:14:04.481Z,20.70
2018-03-04T08:15:04.475Z,20.66
2018-03-04T08:16:04.469Z,20.61
2018-03-04T08:17:04.444Z,20.55
2018-03-04T08:18:04.437Z,20.55
2018-03-04T08:19:04.428Z,20.58
2018-03-04T08:20:04.414Z,20.59
2018-03-04T08:21:04.417Z,20.72
2018-03-04T08:22:04.393Z,20.69
2018-03-04T08:23:04.384Z,20.62
2018-03-04T08:24:04.369Z,20.47
2018-03-04T08:25:04.365Z,20.43
2018-03-04T08:26:04.348Z,20.43
2018-03-04T08:27:04.350Z,20.47
2018-03-04T08:28:04.326Z,20.48
2018-03-04T08:29:04.314Z,20.38
2018-03-04T08:30:04.303Z,20.36
2018-03-04T08:31:04.294Z,20.36
2018-03-04T08:32:04.298Z,20.35
2018-03-04T08:33:04.270Z,20.28
2018-03-04T08:34:04.260Z,20.39
2018-03-04T08:35:04.251Z,20.33
2018-03-04T08:36:04.236Z,20.29
2018-03-04T08:37:04.225Z,20.29
2018-03-04T08:38:04.232Z,20.26
2018-03-04T08:39:04.206Z,20.33
2018-03-04T08:40:04.194Z,20.28
2018-03-04T08:41:04.190Z,20.28
2018-03-04T08:42:04.174Z,20.26
2018-03-04T08:43:04.162Z,20.36
2018-03-04T08:44:04.157Z,20.33
2018-03-04T08:45:04.136Z,20.42
2018-03-04T08:46:04.127Z,20.43
2018-03-04T08:47:04.119Z,20.39
2018-03-04T08:48:04.107Z,20.38
2018-03-04T08:49:04.107Z,20.38
2018-03-04T08:50:04.081Z,20.38
2018-03-04T08:51:04.069Z,20.50
2018-03-04T08:52:04.062Z,20.52
2018-03-04T08:53:04.047Z,20.47
2018-03-04T08:54:04.051Z,20.43
2018-03-04T08:55:04.026Z,20.36
2018-03-04T08:56:04.013Z,20.39
2018-03-04T08:57:04.002Z,20.39
2018-03-04T08:58:03.992Z,20.38
2018-03-04T08:59:03.983Z,20.38
2018-03-04T09:00:03.984Z,20.33
2018-03-04T09:01:03.958Z,20.32
2018-03-04T09:02:03.949Z,20.41
2018-03-04T09:03:03.943Z,20.38
2018-03-04T09:04:03.969Z,20.35
2018-03-04T09:05:03.920Z,20.41
2018-03-04T09:06:03.913Z,20.50
2018-03-04T09:07:03.892Z,20.42
2018-03-04T09:08:03.880Z,20.54
2018-03-04T09:09:03.873Z,20.61
2018-03-04T09:10:03.857Z,20.55
2018-03-04T09:11:03.858Z,20.50
2018-03-04T09:12:03.835Z,20.54
2018-03-04T09:13:03.828Z,20.52
2018-03-04T09:14:03.815Z,20.54
2018-03-04T09:15:03.803Z,20.58
2018-03-04T09:16:03.803Z,20.58
2018-03-04T09:17:03.780Z,20.59
2018-03-04T09:18:03.784Z,20.48
2018-03-04T09:19:03.760Z,20.59
2018-03-04T09:20:03.747Z,20.43
2018-03-04T09:21:03.735Z,20.48
2018-03-04T09:22:03.740Z,20.48
2018-03-04T09:23:03.714Z,20.47
2018-03-04T09:24:03.701Z,20.57
2018-03-04T09:25:03.713Z,20.72
2018-03-04T09:26:03.681Z,20.67
2018-03-04T09:27:03.670Z,20.74
2018-03-04T09:28:03.669Z,20.42
2018-03-04T09:29:03.647Z,20.42
2018-03-04T09:30:03.637Z,20.39
2018-03-04T09:31:03.629Z,20.42
2018-03-04T09:32:03.613Z,20.59
2018-03-04T09:33:03.612Z,20.69
2018-03-04T09:34:03.592Z,20.62
2018-03-04T09:35:03.582Z,20.74
2018-03-04T09:36:03.570Z,20.73
2018-03-04T09:37:03.559Z,20.84
2018-03-04T09:38:03.564Z,20.88
2018-03-04T09:39:03.544Z,20.80
2018-03-04T09:40:03.526Z,20.80
2018-03-04T09:41:03.515Z,20.84
2018-03-04T09:42:03.504Z,20.88
2018-03-04T09:43:03.493Z,20.88
2018-03-04T09:44:03.513Z,20.88
2018-03-04T09:45:03.471Z,20.95
2018-03-04T09:46:03.461Z,20.97
2018-03-04T09:47:03.451Z,20.82
2018-03-04T09:48:03.441Z,20.92
2018-03-04T09:49:03.429Z,20.94
2018-03-04T09:50:03.426Z,20.88
2018-03-04T09:51:03.408Z,20.97
2018-03-04T09:52:03.398Z,20.91
2018-03-04T09:53:03.385Z,20.89
2018-03-04T09:54:03.374Z,20.92
2018-03-04T09:55:03.394Z,20.88
2018-03-04T09:56:03.350Z,20.95
2018-03-04T09:57:03.340Z,20.92
2018-03-04T09:58:03.330Z,21.01
2018-03-04T09:59:03.320Z,20.98
2018-03-04T10:00:03.307Z,21.03
2018-03-04T10:01:03.310Z,20.97
2018-03-04T10:02:03.285Z,20.97
2018-03-04T10:03:03.276Z,21.04
2018-03-04T10:04:03.266Z,21.03
2018-03-04T10:05:03.251Z,21.12
2018-03-04T10:06:03.258Z,21.16
2018-03-04T10:07:03.230Z,21.12
2018-03-04T10:08:03.220Z,21.25
2018-03-04T10:09:03.209Z,21.28
2018-03-04T10:10:03.200Z,21.19
2018-03-04T10:11:03.193Z,21.19
2018-03-04T10:12:03.192Z,21.22
2018-03-04T10:13:03.167Z,21.28
2018-03-04T10:14:03.156Z,21.29
2018-03-04T10:15:03.150Z,21.38
2018-03-04T10:16:03.137Z,21.52
2018-03-04T10:17:03.123Z,21.50
2018-03-04T10:18:03.124Z,21.54
2018-03-04T10:19:03.103Z,21.62
2018-03-04T10:20:03.091Z,21.58
2018-03-04T10:21:03.083Z,21.61
2018-03-04T10:22:03.071Z,21.71
2018-03-04T10:23:03.076Z,21.68
2018-03-04T10:24:03.049Z,21.68
2018-03-04T10:25:03.039Z,21.74
2018-03-04T10:26:03.030Z,21.74
2018-03-04T10:27:03.019Z,21.83
2018-03-04T10:28:03.008Z,21.91
2018-03-04T10:29:03.013Z,21.91
2018-03-04T10:30:02.991Z,21.91
2018-03-04T10:31:02.977Z,21.91
2018-03-04T10:32:02.989Z,21.94
2018-03-04T10:33:02.956Z,21.94
2018-03-04T10:34:02.945Z,21.99
2018-03-04T10:35:02.948Z,21.94
2018-03-04T10:36:02.926Z,22.03
2018-03-04T10:37:02.918Z,21.88
2018-03-04T10:38:02.905Z,22.03
2018-03-04T10:39:02.894Z,22.02
2018-03-04T10:40:02.894Z,22.00
2018-03-04T10:41:02.874Z,21.98
2018-03-04T10:42:02.869Z,22.00
2018-03-04T10:43:02.854Z,22.05
2018-03-04T10:44:02.845Z,22.05
2018-03-04T10:45:02.850Z,22.03
2018-03-04T10:46:02.825Z,22.00
2018-03-04T10:47:02.814Z,21.99
2018-03-04T10:48:02.814Z,21.91
2018-03-04T10:49:02.793Z,21.88
2018-03-04T10:50:02.785Z,21.98
2018-03-04T10:51:02.788Z,21.96
2018-03-04T10:52:02.761Z,21.94
2018-03-04T10:53:02.754Z,21.84
2018-03-04T10:54:02.742Z,21.90
2018-03-04T10:55:02.735Z,21.98
2018-03-04T10:56:02.726Z,21.91
2018-03-04T10:57:02.762Z,22.00
2018-03-04T10:58:02.701Z,21.91
2018-03-04T10:59:02.691Z,21.99
2018-03-04T11:00:02.680Z,21.96
2018-03-04T11:01:02.672Z,21.84
2018-03-04T11:02:02.674Z,21.83
2018-03-04T11:03:02.650Z,21.79
2018-03-04T11:04:02.641Z,21.84
2018-03-04T11:05:02.630Z,21.72
2018-03-04T11:06:02.619Z,21.65
2018-03-04T11:07:02.625Z,21.52
2018-03-04T11:08:02.599Z,21.54
2018-03-04T11:09:02.590Z,21.40
2018-03-04T11:10:02.578Z,21.38
2018-03-04T11:11:02.569Z,21.40
2018-03-04T11:12:02.575Z,21.42
2018-03-04T11:13:02.549Z,21.38
2018-03-04T11:14:02.539Z,21.40
2018-03-04T11:15:02.528Z,21.27
2018-03-04T11:16:02.517Z,21.29
2018-03-04T11:17:02.507Z,21.24
2018-03-04T11:18:02.514Z,21.24
2018-03-04T11:19:02.487Z,21.29
2018-03-04T11:20:02.477Z,21.25
2018-03-04T11:21:02.466Z,21.19
2018-03-04T11:22:02.456Z,21.24
2018-03-04T11:23:02.446Z,21.22
2018-03-04T11:24:02.445Z,21.21
2018-03-04T11:25:02.439Z,21.25
2018-03-04T11:26:02.415Z,21.19
2018-03-04T11:27:02.406Z,21.22
2018-03-04T11:28:02.398Z,21.21
2018-03-04T11:29:02.636Z,21.31
2018-03-04T11:30:02.375Z,21.27
2018-03-04T11:31:02.363Z,21.24
2018-03-04T11:32:02.356Z,21.24
2018-03-04T11:33:02.343Z,21.24
2018-03-04T11:34:02.338Z,21.16
2018-03-04T11:35:02.338Z,21.22
2018-03-04T11:36:02.312Z,21.28
2018-03-04T11:37:02.301Z,21.32
2018-03-04T11:38:02.291Z,21.27
2018-03-04T11:39:02.282Z,21.24
2018-03-04T11:40:02.274Z,21.22
2018-03-04T11:41:02.270Z,21.29
2018-03-04T11:42:02.250Z,21.27
2018-03-04T11:43:02.239Z,21.25
2018-03-04T11:44:02.228Z,21.28
2018-03-04T11:45:02.218Z,21.31
2018-03-04T11:46:02.224Z,21.40
2018-03-04T11:47:02.198Z,21.29
2018-03-04T11:48:02.187Z,21.42
2018-03-04T11:49:02.176Z,21.43
2018-03-04T11:50:02.173Z,21.38
2018-03-04T11:51:02.156Z,21.37
2018-03-04T11:52:02.159Z,21.35
2018-03-04T11:53:02.136Z,21.38
2018-03-04T11:54:02.126Z,21.43
2018-03-04T11:55:02.115Z,21.42
2018-03-04T11:56:02.111Z,21.38
2018-03-04T11:57:02.116Z,21.43
2018-03-04T11:58:02.079Z,21.43
2018-03-04T11:59:02.072Z,21.34
2018-03-04T12:00:02.062Z,21.38
2018-03-04T12:01:02.051Z,21.42
2018-03-04T12:02:02.042Z,21.40
2018-03-04T12:03:02.047Z,21.37
2018-03-04T12:04:02.020Z,21.35
2018-03-04T12:05:02.015Z,21.42
2018-03-04T12:06:02.001Z,21.44
2018-03-04T12:07:01.991Z,21.43
2018-03-04T12:08:01.979Z,21.40
2018-03-04T12:09:01.981Z,21.32
2018-03-04T12:10:01.958Z,21.31
2018-03-04T12:11:01.949Z,21.29
2018-03-04T12:12:01.936Z,21.27
2018-03-04T12:13:01.928Z,21.27
2018-03-04T12:14:01.957Z,21.22
2018-03-04T12:15:01.908Z,21.24
2018-03-04T12:16:01.896Z,21.28
2018-03-04T12:17:01.886Z,21.21
2018-03-04T12:18:01.877Z,21.25
2018-03-04T12:19:01.889Z,21.42
2018-03-04T12:20:01.900Z,21.43
2018-03-04T12:21:01.845Z,21.50
2018-03-04T12:22:01.834Z,21.52
2018-03-04T12:23:01.828Z,21.61
2018-03-04T12:24:01.817Z,21.68
2018-03-04T12:25:01.804Z,21.68
2018-03-04T12:26:01.806Z,21.79
2018-03-04T12:27:01.782Z,21.83
2018-03-04T12:28:01.772Z,21.99
2018-03-04T12:29:01.765Z,21.90
2018-03-04T12:30:01.752Z,22.00
2018-03-04T12:31:01.752Z,22.02
2018-03-04T12:32:01.736Z,22.00
2018-03-04T12:33:01.720Z,22.05
2018-03-04T12:34:01.713Z,22.05
2018-03-04T12:35:01.704Z,22.17
2018-03-04T12:36:01.692Z,22.21
2018-03-04T12:37:01.714Z,22.24
2018-03-04T12:38:01.674Z,22.22
2018-03-04T12:39:01.661Z,22.28
2018-03-04T12:40:01.658Z,22.30
2018-03-04T12:41:01.640Z,22.40
2018-03-04T12:42:01.631Z,22.40
2018-03-04T12:43:01.637Z,22.39
2018-03-04T12:44:01.612Z,22.43
2018-03-04T12:45:01.603Z,22.49
2018-03-04T12:46:01.594Z,22.46
2018-03-04T12:47:01.583Z,22.46
2018-03-04T12:48:01.584Z,22.46
2018-03-04T12:49:01.564Z,22.49
2018-03-04T12:50:01.554Z,22.47
2018-03-04T12:51:01.544Z,22.52
2018-03-04T12:52:01.531Z,22.54